Time;durP1;ratioP1;P1;durP2;ratioP2;P2;SDS_P1;SDS_P2;PMS_P1;PMS_P2;Temp;Humidity;BMP_temperature;BMP_pressure;BME280_temperature;BME280_humidity;BME280_pressure;Samples;Min_cycle;Max_cycle;Signal;HPM_P1;HPM_P2
2022/01/13 00:00:35;;;;;;;1999.90;999.90;;;;;;;;;;4950741;28;20042;-70
2022/01/13 00:03:02;;;;;;;1999.90;999.90;;;;;;;;;;4946691;28;20031;-69
2022/01/13 00:05:30;;;;;;;1999.90;999.90;;;;;;;;;;4949284;29;20035;-72
2022/01/13 00:07:58;;;;;;;1999.90;999.90;;;;;;;;;;4947263;28;20035;-72
2022/01/13 00:10:26;;;;;;;1999.90;999.90;;;;;;;;;;4945028;28;20085;-71
2022/01/13 00:13:02;;;;;;;1999.90;999.90;;;;;;;;;;4949945;28;20142;-68
2022/01/13 00:18:13;;;;;;;1999.90;999.90;;;;;;;;;;4954362;28;20027;-69
2022/01/13 00:26:14;;;;;;;1999.90;999.90;;;;;;;;;;4953034;28;20038;-70
2022/01/13 00:28:44;;;;;;;1999.90;999.90;;;;;;;;;;4956396;28;20026;-68
2022/01/13 00:31:11;;;;;;;1999.90;979.30;;;;;;;;;;4954772;28;20399;-68
2022/01/13 00:33:44;;;;;;;1999.90;785.65;;;;;;;;;;4957441;28;20487;-70
2022/01/13 00:36:11;;;;;;;1999.90;923.50;;;;;;;;;;4951947;28;20873;-68
2022/01/13 00:38:38;;;;;;;1999.90;853.20;;;;;;;;;;4943216;28;20150;-71
2022/01/13 00:41:05;;;;;;;1999.90;786.42;;;;;;;;;;4951475;28;20054;-67
2022/01/13 00:43:36;;;;;;;1975.45;623.13;;;;;;;;;;4951392;28;20027;-70
2022/01/13 00:46:03;;;;;;;1999.90;914.55;;;;;;;;;;4952314;28;20043;-70
2022/01/13 00:48:31;;;;;;;1999.90;963.53;;;;;;;;;;4955586;28;20030;-71
2022/01/13 00:50:58;;;;;;;1999.90;891.20;;;;;;;;;;4949680;28;20039;-70
2022/01/13 00:53:25;;;;;;;1999.90;725.65;;;;;;;;;;4950526;28;20019;-69
2022/01/13 00:55:58;;;;;;;1999.90;883.22;;;;;;;;;;4957577;28;20071;-69
2022/01/13 00:58:27;;;;;;;1749.35;597.17;;;;;;;;;;4958072;28;20034;-67
2022/01/13 01:00:54;;;;;;;1951.22;614.70;;;;;;;;;;4957145;28;20621;-68
2022/01/13 01:03:21;;;;;;;1968.82;678.75;;;;;;;;;;4954046;28;20050;-71
2022/01/13 01:05:48;;;;;;;1999.90;922.53;;;;;;;;;;4957828;28;20599;-72
2022/01/13 01:08:16;;;;;;;846.20;252.57;;;;;;;;;;4957937;28;20483;-70
2022/01/13 01:10:45;;;;;;;1961.70;727.03;;;;;;;;;;4953740;28;20027;-70
2022/01/13 01:13:16;;;;;;;1775.47;647.75;;;;;;;;;;4953717;28;20050;-70
2022/01/13 01:15:47;;;;;;;1559.97;562.13;;;;;;;;;;4953794;28;20019;-70
2022/01/13 01:18:28;;;;;;;1503.10;550.53;;;;;;;;;;4957090;28;20023;-71
2022/01/13 01:29:32;;;;;;;1309.05;437.67;;;;;;;;;;4953441;28;20446;-71
2022/01/13 01:31:54;;;;;;;1204.82;447.50;;;;;;;;;;4955590;28;20123;-71
2022/01/13 01:34:37;;;;;;;1354.18;478.35;;;;;;;;;;4954828;28;20489;-66
2022/01/13 01:37:13;;;;;;;709.13;254.02;;;;;;;;;;4953660;28;20121;-69
2022/01/13 01:39:40;;;;;;;712.58;194.15;;;;;;;;;;4951406;28;20023;-69
2022/01/13 01:42:07;;;;;;;1544.90;595.58;;;;;;;;;;4958084;28;20030;-68
2022/01/13 01:44:39;;;;;;;1368.90;468.30;;;;;;;;;;4953203;28;20082;-70
2022/01/13 01:47:08;;;;;;;1358.13;503.40;;;;;;;;;;4949585;28;20031;-69
2022/01/13 01:49:40;;;;;;;1350.82;468.45;;;;;;;;;;4961178;28;20023;-70
2022/01/13 01:52:08;;;;;;;721.30;206.10;;;;;;;;;;4951762;28;20055;-68
2022/01/13 01:54:35;;;;;;;945.28;300.70;;;;;;;;;;4949102;28;20027;-66
2022/01/13 01:57:02;;;;;;;862.92;305.77;;;;;;;;;;4953089;28;20031;-67
2022/01/13 01:59:32;;;;;;;1999.90;999.90;;;;;;;;;;4953722;28;20023;-70
2022/01/13 02:01:59;;;;;;;1999.90;955.90;;;;;;;;;;4952093;28;20031;-68
2022/01/13 02:04:27;;;;;;;1078.82;387.50;;;;;;;;;;4957992;28;20546;-67
2022/01/13 02:06:55;;;;;;;683.67;229.70;;;;;;;;;;4949587;28;20984;-68
2022/01/13 02:09:23;;;;;;;877.55;315.85;;;;;;;;;;4947302;28;20395;-70
2022/01/13 02:11:57;;;;;;;792.65;268.20;;;;;;;;;;4962705;28;20027;-71
2022/01/13 02:17:05;;;;;;;789.50;269.98;;;;;;;;;;4957708;28;20046;-68
2022/01/13 02:19:32;;;;;;;1053.35;395.30;;;;;;;;;;4955407;28;20605;-75
2022/01/13 02:22:00;;;;;;;782.60;264.17;;;;;;;;;;4948715;28;20485;-70
2022/01/13 02:24:29;;;;;;;824.45;294.50;;;;;;;;;;4961797;28;20128;-73
2022/01/13 02:26:57;;;;;;;1621.57;580.60;;;;;;;;;;4959539;28;20023;-72
2022/01/13 02:29:24;;;;;;;1043.03;367.35;;;;;;;;;;4948980;28;20027;-74
2022/01/13 02:31:51;;;;;;;1083.03;381.73;;;;;;;;;;4953593;28;20027;-70
2022/01/13 02:34:19;;;;;;;1084.95;434.50;;;;;;;;;;4951393;28;20038;-76
2022/01/13 02:36:46;;;;;;;693.97;236.05;;;;;;;;;;4948096;28;20484;-76
2022/01/13 02:39:14;;;;;;;1999.90;999.90;;;;;;;;;;4949844;28;20117;-75
2022/01/13 02:41:41;;;;;;;1999.90;999.90;;;;;;;;;;4957612;28;20035;-72
2022/01/13 02:44:15;;;;;;;1999.90;999.90;;;;;;;;;;4953932;28;20372;-69
2022/01/13 02:49:11;;;;;;;1911.38;750.47;;;;;;;;;;4949966;28;20549;-72
2022/01/13 02:51:39;;;;;;;1295.10;511.20;;;;;;;;;;4946741;29;20444;-72
2022/01/13 02:54:07;;;;;;;1700.03;632.40;;;;;;;;;;4939563;29;20474;-68
2022/01/13 02:56:35;;;;;;;1959.07;690.30;;;;;;;;;;4942098;29;20034;-70
2022/01/13 02:59:02;;;;;;;1999.90;999.90;;;;;;;;;;4942668;29;20034;-68
2022/01/13 03:01:29;;;;;;;1079.47;462.52;;;;;;;;;;4943336;28;20040;-70
2022/01/13 03:03:57;;;;;;;1999.90;797.78;;;;;;;;;;4954427;28;20053;-69
2022/01/13 03:06:31;;;;;;;1999.90;824.83;;;;;;;;;;4950104;28;20143;-75
2022/01/13 03:08:59;;;;;;;1357.28;549.25;;;;;;;;;;4948853;28;20028;-69
2022/01/13 03:11:37;;;;;;;1253.43;488.52;;;;;;;;;;4957911;28;20023;-70
2022/01/13 03:14:13;;;;;;;1118.35;421.80;;;;;;;;;;4960573;28;20402;-69
2022/01/13 03:16:45;;;;;;;1999.90;974.63;;;;;;;;;;4961330;28;20022;-74
2022/01/13 03:19:12;;;;;;;1506.03;619.13;;;;;;;;;;4950700;28;20023;-74
2022/01/13 03:21:39;;;;;;;1577.18;583.28;;;;;;;;;;4957126;28;20067;-70
2022/01/13 03:24:10;;;;;;;1999.90;999.90;;;;;;;;;;4969644;28;20019;-72
2022/01/13 03:26:37;;;;;;;1999.90;973.85;;;;;;;;;;4974549;28;20561;-70
2022/01/13 03:29:26;;;;;;;1999.90;801.33;;;;;;;;;;4971349;28;20062;-74
2022/01/13 03:31:51;;;;;;;1999.90;756.13;;;;;;;;;;4968947;28;20141;-75
2022/01/13 03:34:19;;;;;;;1975.55;684.55;;;;;;;;;;4971539;28;20034;-68
2022/01/13 03:36:46;;;;;;;1333.22;480.85;;;;;;;;;;4969551;28;20038;-74
2022/01/13 03:39:13;;;;;;;1999.90;836.40;;;;;;;;;;4972284;28;20029;-73
2022/01/13 03:41:41;;;;;;;1999.90;999.90;;;;;;;;;;4970218;28;20129;-74
2022/01/13 03:44:17;;;;;;;1999.90;722.55;;;;;;;;;;4971794;28;20019;-69
2022/01/13 03:46:44;;;;;;;1261.05;485.33;;;;;;;;;;4970609;28;20490;-74
2022/01/13 03:49:11;;;;;;;1999.90;850.78;;;;;;;;;;4969658;28;20482;-77
2022/01/13 03:51:59;;;;;;;1999.90;999.90;;;;;;;;;;4969863;28;20015;-77
2022/01/13 03:54:35;;;;;;;1999.90;999.90;;;;;;;;;;4970589;28;20030;-75
2022/01/13 03:57:21;;;;;;;1999.90;999.90;;;;;;;;;;4967089;28;20031;-67
2022/01/13 03:59:48;;;;;;;1999.90;988.63;;;;;;;;;;4972104;28;20082;-77
2022/01/13 04:02:15;;;;;;;1999.90;975.55;;;;;;;;;;4962241;28;20482;-76
2022/01/13 04:04:44;;;;;;;1999.90;999.90;;;;;;;;;;4954400;28;20120;-74
2022/01/13 04:07:10;;;;;;;1566.03;622.42;;;;;;;;;;4954505;28;20030;-76
2022/01/13 04:09:57;;;;;;;1979.75;719.58;;;;;;;;;;4955481;28;20027;-72
2022/01/13 04:12:27;;;;;;;1999.90;836.05;;;;;;;;;;4937907;28;20043;-77
2022/01/13 04:14:58;;;;;;;1999.90;858.95;;;;;;;;;;4956152;28;20034;-75
2022/01/13 04:17:26;;;;;;;1999.90;922.00;;;;;;;;;;4964699;28;20034;-76
2022/01/13 04:19:54;;;;;;;1999.90;984.03;;;;;;;;;;4961043;28;20443;-68
2022/01/13 04:22:21;;;;;;;1999.90;918.47;;;;;;;;;;4944847;29;20032;-73
2022/01/13 04:24:49;;;;;;;1861.85;674.03;;;;;;;;;;4949601;28;20031;-71
2022/01/13 04:27:28;;;;;;;1872.53;737.00;;;;;;;;;;4947591;29;20110;-72
2022/01/13 04:32:41;;;;;;;1999.90;945.80;;;;;;;;;;4948061;29;20143;-72
2022/01/13 04:35:09;;;;;;;1999.90;907.38;;;;;;;;;;4957433;28;20042;-68
2022/01/13 04:37:36;;;;;;;1999.90;993.50;;;;;;;;;;4960736;28;20034;-71
2022/01/13 04:40:03;;;;;;;1999.90;843.60;;;;;;;;;;4948688;28;20039;-72
2022/01/13 04:42:35;;;;;;;1999.90;843.33;;;;;;;;;;4951077;28;20587;-74
2022/01/13 04:45:03;;;;;;;1866.45;736.80;;;;;;;;;;4953243;28;20089;-71
2022/01/13 04:47:30;;;;;;;1849.10;674.88;;;;;;;;;;4949230;28;20034;-72
2022/01/13 04:49:57;;;;;;;1999.90;999.90;;;;;;;;;;4961330;28;20024;-73
2022/01/13 04:52:24;;;;;;;1999.90;999.90;;;;;;;;;;4952596;28;20031;-75
2022/01/13 04:54:51;;;;;;;1999.90;999.90;;;;;;;;;;4958745;28;20020;-72
2022/01/13 04:57:18;;;;;;;1999.90;999.90;;;;;;;;;;4956667;28;20027;-72
2022/01/13 04:59:46;;;;;;;1999.90;999.90;;;;;;;;;;4956038;28;20073;-73
2022/01/13 05:02:14;;;;;;;1999.90;999.90;;;;;;;;;;4950109;28;20665;-71
2022/01/13 05:04:41;;;;;;;1999.90;999.90;;;;;;;;;;4958931;28;20034;-73
2022/01/13 05:07:08;;;;;;;1999.90;999.90;;;;;;;;;;4960151;28;20035;-73
2022/01/13 05:09:35;;;;;;;1999.90;999.90;;;;;;;;;;4956930;28;20110;-66
2022/01/13 05:12:02;;;;;;;1999.90;999.90;;;;;;;;;;4961934;28;20538;-73
2022/01/13 05:14:31;;;;;;;1999.90;999.90;;;;;;;;;;4955983;28;20039;-75
2022/01/13 05:17:06;;;;;;;1999.90;999.90;;;;;;;;;;4959046;28;20034;-72
2022/01/13 05:19:41;;;;;;;1999.90;999.90;;;;;;;;;;4958121;28;20611;-73
2022/01/13 05:24:38;;;;;;;1999.90;999.90;;;;;;;;;;4955627;28;20542;-72
2022/01/13 05:27:06;;;;;;;1999.90;999.90;;;;;;;;;;4946305;28;20182;-66
2022/01/13 05:29:33;;;;;;;1999.90;999.90;;;;;;;;;;4950350;28;20019;-72
2022/01/13 05:32:00;;;;;;;1999.90;999.90;;;;;;;;;;4953850;28;20026;-70
2022/01/13 05:34:28;;;;;;;1999.90;999.90;;;;;;;;;;4951141;28;20545;-69
2022/01/13 05:36:55;;;;;;;1999.90;999.90;;;;;;;;;;4955754;28;20078;-70
2022/01/13 05:39:22;;;;;;;1999.90;999.90;;;;;;;;;;4957909;28;20368;-74
2022/01/13 05:41:48;;;;;;;1999.90;999.90;;;;;;;;;;4955280;28;20035;-74
2022/01/13 05:44:19;;;;;;;1999.90;999.90;;;;;;;;;;4955545;28;20375;-72
2022/01/13 05:46:46;;;;;;;1999.90;999.90;;;;;;;;;;4953017;28;20122;-72
2022/01/13 05:49:13;;;;;;;1999.90;999.90;;;;;;;;;;4956672;28;20034;-75
2022/01/13 05:51:40;;;;;;;1999.90;999.90;;;;;;;;;;4964901;28;20184;-74
2022/01/13 05:54:07;;;;;;;1999.90;999.90;;;;;;;;;;4943321;29;20031;-73
2022/01/13 05:56:35;;;;;;;1999.90;999.90;;;;;;;;;;4943560;28;20024;-75
2022/01/13 05:59:02;;;;;;;1999.90;999.90;;;;;;;;;;4951836;28;20114;-75
2022/01/13 06:01:36;;;;;;;1999.90;999.90;;;;;;;;;;4960005;28;20027;-76
2022/01/13 06:04:03;;;;;;;1999.90;999.90;;;;;;;;;;4948090;28;20503;-74
2022/01/13 06:06:31;;;;;;;1999.90;999.90;;;;;;;;;;4950804;28;20126;-74
2022/01/13 06:09:05;;;;;;;1999.90;999.90;;;;;;;;;;4961166;28;20512;-71
2022/01/13 06:11:41;;;;;;;1999.90;999.90;;;;;;;;;;4952585;28;20085;-65
2022/01/13 06:14:10;;;;;;;1999.90;999.90;;;;;;;;;;4951474;28;20053;-66
2022/01/13 06:16:44;;;;;;;1999.90;999.90;;;;;;;;;;4954983;28;20027;-64
2022/01/13 06:19:12;;;;;;;1999.90;999.90;;;;;;;;;;4952091;28;20102;-65
2022/01/13 06:21:39;;;;;;;1999.90;999.90;;;;;;;;;;4968904;28;20046;-64
2022/01/13 06:24:06;;;;;;;1999.90;999.90;;;;;;;;;;4957287;28;20029;-65
2022/01/13 06:26:33;;;;;;;1999.90;999.90;;;;;;;;;;4960542;28;20667;-66
2022/01/13 06:29:03;;;;;;;1999.90;999.90;;;;;;;;;;4955229;28;20035;-65
2022/01/13 06:31:31;;;;;;;1999.90;999.90;;;;;;;;;;4953430;28;20114;-69
2022/01/13 06:33:58;;;;;;;1999.90;999.90;;;;;;;;;;4955622;28;20506;-68
2022/01/13 06:36:31;;;;;;;860.38;558.25;;;;;;;;;;4951779;28;20476;-67
2022/01/13 06:38:59;;;;;;;1999.90;999.90;;;;;;;;;;4953211;28;20063;-69
2022/01/13 06:41:26;;;;;;;1999.90;999.90;;;;;;;;;;4960779;28;20122;-70
2022/01/13 06:43:53;;;;;;;1999.90;999.90;;;;;;;;;;4968537;28;20034;-70
2022/01/13 06:46:20;;;;;;;1999.90;999.90;;;;;;;;;;4968766;28;20042;-67
2022/01/13 06:48:53;;;;;;;1999.90;999.90;;;;;;;;;;4966718;28;20442;-71
2022/01/13 06:51:20;;;;;;;1999.90;999.90;;;;;;;;;;4969667;28;20027;-70
2022/01/13 06:53:47;;;;;;;1999.90;999.90;;;;;;;;;;4969553;28;20015;-69
2022/01/13 06:56:14;;;;;;;1999.90;999.90;;;;;;;;;;4970449;28;20065;-70
2022/01/13 06:58:44;;;;;;;1999.90;999.90;;;;;;;;;;4967932;28;20035;-69
2022/01/13 07:01:13;;;;;;;1999.90;999.90;;;;;;;;;;4970296;28;20031;-68
2022/01/13 07:03:40;;;;;;;1999.90;999.90;;;;;;;;;;4970122;28;20031;-69
2022/01/13 07:06:07;;;;;;;1999.90;999.90;;;;;;;;;;4966789;28;20093;-67
2022/01/13 07:08:34;;;;;;;1999.90;999.90;;;;;;;;;;4969518;28;20019;-69
2022/01/13 07:11:03;;;;;;;1999.90;999.90;;;;;;;;;;4945883;29;20485;-69
2022/01/13 07:13:33;;;;;;;1999.90;999.90;;;;;;;;;;4966450;28;20042;-70
2022/01/13 07:16:02;;;;;;;1999.90;999.90;;;;;;;;;;4971379;28;20027;-67
2022/01/13 07:18:29;;;;;;;1999.90;999.90;;;;;;;;;;4971776;28;20031;-70
2022/01/13 07:20:57;;;;;;;1999.90;999.90;;;;;;;;;;4971076;28;20076;-68
2022/01/13 07:23:24;;;;;;;1999.90;999.90;;;;;;;;;;4971634;28;20027;-68
2022/01/13 07:25:51;;;;;;;1999.90;999.90;;;;;;;;;;4971750;28;20030;-68
2022/01/13 07:28:18;;;;;;;1999.90;999.90;;;;;;;;;;4972062;28;20379;-69
2022/01/13 07:30:45;;;;;;;1999.90;999.90;;;;;;;;;;4971740;28;20062;-68
2022/01/13 07:33:12;;;;;;;1973.20;753.13;;;;;;;;;;4972181;28;20023;-70
2022/01/13 07:35:39;;;;;;;1999.90;999.90;;;;;;;;;;4972040;28;20022;-68
2022/01/13 07:38:06;;;;;;;1999.90;797.03;;;;;;;;;;4971621;28;20026;-69
2022/01/13 07:40:34;;;;;;;1999.90;976.03;;;;;;;;;;4971381;28;20031;-71
2022/01/13 07:43:02;;;;;;;1999.90;999.90;;;;;;;;;;4971880;28;20023;-70
2022/01/13 07:45:29;;;;;;;1999.90;999.90;;;;;;;;;;4970834;28;20046;-69
2022/01/13 07:47:56;;;;;;;1999.90;889.17;;;;;;;;;;4971856;28;20211;-70
2022/01/13 07:50:23;;;;;;;1999.90;999.90;;;;;;;;;;4971476;28;20038;-71
2022/01/13 07:52:50;;;;;;;1999.90;999.90;;;;;;;;;;4972028;28;20015;-69
2022/01/13 07:55:17;;;;;;;1999.90;928.65;;;;;;;;;;4972121;28;20061;-69
2022/01/13 07:57:44;;;;;;;1999.90;999.90;;;;;;;;;;4971645;28;20019;-70
2022/01/13 08:00:12;;;;;;;1999.90;839.03;;;;;;;;;;4972787;28;20041;-69
2022/01/13 08:02:40;;;;;;;1999.90;999.90;;;;;;;;;;4975549;28;20019;-69
2022/01/13 08:05:08;;;;;;;1999.90;999.90;;;;;;;;;;4975191;28;20475;-69
2022/01/13 08:07:35;;;;;;;1999.90;999.90;;;;;;;;;;4975331;28;20049;-69
2022/01/13 08:10:02;;;;;;;1999.90;999.90;;;;;;;;;;4974516;28;20061;-71
2022/01/13 08:12:29;;;;;;;1999.90;999.90;;;;;;;;;;4974935;28;20503;-71
2022/01/13 08:14:56;;;;;;;1999.90;999.90;;;;;;;;;;4975052;28;20122;-71
2022/01/13 08:20:09;;;;;;;1999.90;991.13;;;;;;;;;;4974665;28;20113;-71
2022/01/13 08:22:36;;;;;;;1999.90;999.90;;;;;;;;;;4975117;28;20473;-70
2022/01/13 08:25:03;;;;;;;1999.90;999.90;;;;;;;;;;4974567;28;20034;-67
2022/01/13 08:27:30;;;;;;;1999.90;999.90;;;;;;;;;;4974922;28;20026;-71
2022/01/13 08:29:57;;;;;;;1999.90;999.90;;;;;;;;;;4973300;28;20126;-70
2022/01/13 08:32:24;;;;;;;1999.90;999.90;;;;;;;;;;4973611;28;20081;-71
2022/01/13 08:34:51;;;;;;;1999.90;916.45;;;;;;;;;;4974645;28;20034;-71
2022/01/13 08:37:18;;;;;;;1999.90;824.33;;;;;;;;;;4974935;28;20027;-71
2022/01/13 08:39:45;;;;;;;1999.90;999.90;;;;;;;;;;4974493;28;20066;-70
2022/01/13 08:42:13;;;;;;;1999.90;999.90;;;;;;;;;;4974146;28;20061;-71
2022/01/13 08:44:40;;;;;;;1999.90;999.90;;;;;;;;;;4973138;28;20055;-68
2022/01/13 08:47:09;;;;;;;1999.90;934.67;;;;;;;;;;4974565;28;20410;-67
2022/01/13 08:49:36;;;;;;;1999.90;999.90;;;;;;;;;;4973908;28;20022;-66
2022/01/13 08:52:04;;;;;;;1999.90;999.90;;;;;;;;;;4974111;28;20494;-65
2022/01/13 08:54:31;;;;;;;1999.90;999.90;;;;;;;;;;4974218;28;20113;-66
2022/01/13 08:56:58;;;;;;;1999.90;999.90;;;;;;;;;;4974386;28;20516;-66
2022/01/13 08:59:25;;;;;;;1999.90;999.90;;;;;;;;;;4972536;28;20474;-66
2022/01/13 09:01:53;;;;;;;1999.90;999.90;;;;;;;;;;4973822;28;20046;-67
2022/01/13 09:04:20;;;;;;;1999.90;999.90;;;;;;;;;;4974133;28;20070;-66
2022/01/13 09:06:47;;;;;;;1999.90;999.90;;;;;;;;;;4974267;28;20110;-65
2022/01/13 09:09:14;;;;;;;1999.90;999.90;;;;;;;;;;4973931;28;20074;-66
2022/01/13 09:11:42;;;;;;;1999.90;999.90;;;;;;;;;;4972858;28;20022;-66
2022/01/13 09:14:09;;;;;;;1999.90;999.90;;;;;;;;;;4974076;28;20031;-67
2022/01/13 09:16:45;;;;;;;1999.90;999.90;;;;;;;;;;4973429;28;20034;-67
2022/01/13 09:19:13;;;;;;;1999.90;999.90;;;;;;;;;;4973019;28;20482;-67
2022/01/13 09:21:44;;;;;;;1999.90;999.90;;;;;;;;;;4973466;28;20027;-66
2022/01/13 09:24:13;;;;;;;1999.90;999.90;;;;;;;;;;4973934;28;20023;-67
2022/01/13 09:26:40;;;;;;;1999.90;999.90;;;;;;;;;;4973735;28;20546;-65
2022/01/13 09:29:08;;;;;;;1999.90;999.90;;;;;;;;;;4973642;28;20027;-65
2022/01/13 09:31:36;;;;;;;1999.90;999.90;;;;;;;;;;4972912;28;20023;-66
2022/01/13 09:34:04;;;;;;;1999.90;999.90;;;;;;;;;;4973695;28;20034;-66
2022/01/13 09:36:32;;;;;;;1999.90;999.90;;;;;;;;;;4973476;28;20089;-65
2022/01/13 09:39:01;;;;;;;1999.90;999.90;;;;;;;;;;4973682;28;20102;-67
2022/01/13 09:41:30;;;;;;;1999.90;999.90;;;;;;;;;;4972633;28;20038;-67
2022/01/13 09:43:58;;;;;;;1999.90;999.90;;;;;;;;;;4973381;28;20035;-69
2022/01/13 09:46:26;;;;;;;1999.90;999.90;;;;;;;;;;4972257;28;20043;-69
2022/01/13 09:48:54;;;;;;;1999.90;999.90;;;;;;;;;;5040885;23;20070;-67
2022/01/13 09:51:24;;;;;;;1999.90;999.90;;;;;;;;;;4988071;28;20083;-65
2022/01/13 09:53:51;;;;;;;1999.90;999.90;;;;;;;;;;4973336;28;20057;-66
2022/01/13 09:56:18;;;;;;;1999.90;999.90;;;;;;;;;;4973145;28;20082;-66
2022/01/13 09:58:45;;;;;;;1999.90;999.90;;;;;;;;;;4973018;28;20027;-66
2022/01/13 10:01:13;;;;;;;1999.90;999.90;;;;;;;;;;4971683;28;20034;-67
2022/01/13 10:03:40;;;;;;;1999.90;999.90;;;;;;;;;;4971633;28;20034;-68
2022/01/13 10:06:13;;;;;;;1999.90;999.90;;;;;;;;;;4972474;28;20115;-67
2022/01/13 10:08:43;;;;;;;1999.90;798.58;;;;;;;;;;4971599;28;20035;-67
2022/01/13 10:11:28;;;;;;;1988.00;696.17;;;;;;;;;;4973043;28;20023;-66
2022/01/13 10:16:23;;;;;;;1984.75;693.75;;;;;;;;;;4971636;28;20363;-66
2022/01/13 10:17:09;;;;;;;1999.90;999.90;;;;;;;;;;4972201;28;20608;-66
2022/01/13 10:19:40;;;;;;;1999.90;999.90;;;;;;;;;;4971373;28;20033;-67
2022/01/13 10:22:14;;;;;;;1999.90;999.90;;;;;;;;;;4972283;28;20085;-68
2022/01/13 10:24:42;;;;;;;1999.90;874.40;;;;;;;;;;4970444;28;20026;-69
2022/01/13 10:27:18;;;;;;;1999.90;996.47;;;;;;;;;;4972756;28;20027;-69
2022/01/13 10:29:45;;;;;;;1999.90;831.67;;;;;;;;;;4971961;28;20035;-70
2022/01/13 10:32:14;;;;;;;1999.90;999.90;;;;;;;;;;4972518;28;20507;-66
2022/01/13 10:34:43;;;;;;;1999.90;999.90;;;;;;;;;;4971742;28;20038;-69
2022/01/13 10:37:18;;;;;;;1999.90;999.90;;;;;;;;;;4971296;28;20438;-66
2022/01/13 10:39:59;;;;;;;1999.90;999.90;;;;;;;;;;4972396;28;20034;-69
2022/01/13 10:45:09;;;;;;;1999.90;999.90;;;;;;;;;;4972018;28;20360;-68
2022/01/13 10:47:36;;;;;;;1999.90;936.28;;;;;;;;;;4972189;28;20027;-70
2022/01/13 10:50:11;;;;;;;1999.90;999.90;;;;;;;;;;4972299;28;20078;-70
2022/01/13 10:52:39;;;;;;;1999.90;999.90;;;;;;;;;;4972329;28;20090;-70
2022/01/13 10:55:09;;;;;;;1999.90;999.90;;;;;;;;;;4972291;28;20027;-70
2022/01/13 10:57:37;;;;;;;1999.90;999.90;;;;;;;;;;4972247;28;20146;-69
2022/01/13 11:00:05;;;;;;;1999.90;999.90;;;;;;;;;;4972079;28;20122;-71
2022/01/13 11:02:32;;;;;;;1999.90;999.90;;;;;;;;;;4972376;28;20050;-71
2022/01/13 11:05:02;;;;;;;1999.90;999.90;;;;;;;;;;4971304;28;20035;-68
2022/01/13 11:07:30;;;;;;;1999.90;999.90;;;;;;;;;;4972249;28;20015;-68
2022/01/13 11:10:03;;;;;;;1999.90;999.90;;;;;;;;;;4971993;28;20043;-69
2022/01/13 11:12:36;;;;;;;695.03;233.32;;;;;;;;;;4972197;28;20031;-70
2022/01/13 11:15:08;;;;;;;567.35;178.65;;;;;;;;;;4973235;28;20474;-71
2022/01/13 11:17:38;;;;;;;1999.90;999.90;;;;;;;;;;4973725;28;20463;-70
2022/01/13 11:20:06;;;;;;;1999.90;999.90;;;;;;;;;;4971684;28;20119;-70
2022/01/13 11:22:39;;;;;;;1999.90;947.08;;;;;;;;;;4972424;28;20137;-70
2022/01/13 11:25:07;;;;;;;1999.90;999.90;;;;;;;;;;4971815;28;20569;-70
2022/01/13 11:27:34;;;;;;;1999.90;999.90;;;;;;;;;;4971652;28;20549;-69
2022/01/13 11:30:01;;;;;;;1999.90;999.90;;;;;;;;;;4972170;28;20059;-69
2022/01/13 11:32:28;;;;;;;1999.90;999.90;;;;;;;;;;4972387;28;20501;-70
2022/01/13 11:35:00;;;;;;;1999.90;999.90;;;;;;;;;;4987593;28;20031;-70
2022/01/13 11:37:28;;;;;;;1999.90;999.90;;;;;;;;;;4975876;28;20086;-69
2022/01/13 11:39:56;;;;;;;1999.90;999.90;;;;;;;;;;4975744;28;20038;-68
2022/01/13 11:42:24;;;;;;;1999.90;999.90;;;;;;;;;;4975334;28;20650;-70
2022/01/13 11:45:14;;;;;;;1999.90;999.90;;;;;;;;;;4975582;28;20034;-65
2022/01/13 11:47:41;;;;;;;1999.90;873.28;;;;;;;;;;4967660;28;20043;-68
2022/01/13 11:50:17;;;;;;;1999.90;999.90;;;;;;;;;;4975405;28;20042;-70
2022/01/13 11:52:48;;;;;;;1999.90;862.42;;;;;;;;;;4975754;28;20546;-67
2022/01/13 11:55:33;;;;;;;1999.90;999.90;;;;;;;;;;4974817;28;20382;-65
2022/01/13 11:58:16;;;;;;;1999.90;982.00;;;;;;;;;;4975479;28;20030;-65
2022/01/13 12:00:44;;;;;;;1999.90;999.90;;;;;;;;;;4975314;28;20041;-65
2022/01/13 12:03:24;;;;;;;1234.85;308.70;;;;;;;;;;4988938;28;20066;-66
2022/01/13 12:05:51;;;;;;;1999.90;999.90;;;;;;;;;;4973866;28;20596;-65
2022/01/13 12:08:47;;;;;;;1999.90;999.90;;;;;;;;;;4975380;28;20031;-66
2022/01/13 12:11:32;;;;;;;1999.90;999.90;;;;;;;;;;4972622;28;20138;-65
2022/01/13 12:13:59;;;;;;;1999.90;609.13;;;;;;;;;;4975289;28;20126;-65
2022/01/13 12:16:44;;;;;;;1999.90;999.90;;;;;;;;;;4974403;28;20053;-67
2022/01/13 12:19:14;;;;;;;1999.90;999.90;;;;;;;;;;4974153;28;20073;-66
2022/01/13 12:21:49;;;;;;;1999.90;999.90;;;;;;;;;;4975178;28;20035;-66
2022/01/13 12:24:36;;;;;;;1999.90;979.47;;;;;;;;;;4975201;28;20022;-66
2022/01/13 12:27:04;;;;;;;1999.90;999.90;;;;;;;;;;4974675;28;20035;-66
2022/01/13 12:29:32;;;;;;;1999.90;999.90;;;;;;;;;;4975205;28;20027;-66
2022/01/13 12:31:59;;;;;;;1999.90;999.90;;;;;;;;;;4974509;28;20356;-65
2022/01/13 12:34:35;;;;;;;1999.90;898.13;;;;;;;;;;4974835;28;20746;-67
2022/01/13 12:37:15;;;;;;;1999.90;937.03;;;;;;;;;;4974408;28;20177;-66
2022/01/13 12:39:43;;;;;;;1999.90;999.90;;;;;;;;;;4974634;28;20034;-67
2022/01/13 12:42:17;;;;;;;1999.90;999.45;;;;;;;;;;4975061;28;20234;-65
2022/01/13 12:47:30;;;;;;;1999.90;960.17;;;;;;;;;;4974585;28;20038;-66
2022/01/13 12:49:57;;;;;;;1082.75;348.63;;;;;;;;;;4974277;28;20043;-66
2022/01/13 12:52:25;;;;;;;1999.90;999.90;;;;;;;;;;4974713;28;20018;-65
2022/01/13 12:54:53;;;;;;;1999.90;983.42;;;;;;;;;;4973837;28;20081;-67
2022/01/13 12:57:22;;;;;;;1999.90;999.90;;;;;;;;;;4974102;28;20034;-66
2022/01/13 12:59:54;;;;;;;1999.90;999.90;;;;;;;;;;4973919;28;20030;-65
2022/01/13 13:02:21;;;;;;;1999.90;995.65;;;;;;;;;;4973610;28;20110;-67
2022/01/13 13:04:49;;;;;;;1999.90;831.20;;;;;;;;;;4974165;28;20023;-66
2022/01/13 13:07:16;;;;;;;1999.90;998.80;;;;;;;;;;4973781;28;20387;-66
2022/01/13 13:09:43;;;;;;;1999.90;999.90;;;;;;;;;;4972785;28;20026;-66
2022/01/13 13:12:13;;;;;;;1999.90;999.90;;;;;;;;;;4974058;28;20019;-67
2022/01/13 13:17:29;;;;;;;1999.90;999.90;;;;;;;;;;4941978;28;20376;-66
2022/01/13 13:19:57;;;;;;;1999.90;999.90;;;;;;;;;;4974029;28;20038;-66
2022/01/13 13:22:24;;;;;;;1999.90;913.00;;;;;;;;;;4974020;28;20034;-65
2022/01/13 13:24:51;;;;;;;1999.90;999.90;;;;;;;;;;4973824;28;20023;-66
2022/01/13 13:27:31;;;;;;;1999.90;999.90;;;;;;;;;;4973229;28;20076;-66
2022/01/13 13:29:58;;;;;;;1999.90;999.90;;;;;;;;;;4973845;28;20027;-68
2022/01/13 13:32:25;;;;;;;1999.90;999.90;;;;;;;;;;4973439;28;20027;-66
2022/01/13 13:34:52;;;;;;;1999.90;856.47;;;;;;;;;;4972320;28;20038;-67
2022/01/13 13:37:19;;;;;;;1999.90;999.90;;;;;;;;;;4973848;28;20019;-68
2022/01/13 13:39:47;;;;;;;1999.90;776.83;;;;;;;;;;4973522;28;20027;-64
2022/01/13 13:42:16;;;;;;;1727.70;591.08;;;;;;;;;;4973699;28;20506;-66
2022/01/13 13:44:45;;;;;;;1999.90;766.00;;;;;;;;;;4973308;28;20038;-69
2022/01/13 13:47:13;;;;;;;1999.90;999.90;;;;;;;;;;4972846;28;20501;-68
2022/01/13 13:49:41;;;;;;;1999.90;999.90;;;;;;;;;;4973252;28;20055;-69
2022/01/13 13:52:10;;;;;;;1964.20;628.33;;;;;;;;;;4988437;28;20023;-67
2022/01/13 13:54:48;;;;;;;1882.97;699.05;;;;;;;;;;4973654;28;20096;-67
2022/01/13 13:57:16;;;;;;;1999.90;999.90;;;;;;;;;;4980597;28;20042;-64
2022/01/13 13:59:51;;;;;;;1999.90;999.90;;;;;;;;;;4972403;28;20030;-66
2022/01/13 14:02:34;;;;;;;1813.78;660.10;;;;;;;;;;4973103;28;20042;-65
2022/01/13 14:05:12;;;;;;;1999.90;762.35;;;;;;;;;;4972057;28;20074;-65
2022/01/13 14:07:42;;;;;;;1999.90;999.90;;;;;;;;;;4971867;28;20142;-65
2022/01/13 14:10:16;;;;;;;1999.90;999.90;;;;;;;;;;4972514;28;20022;-65
2022/01/13 14:12:49;;;;;;;1999.90;879.72;;;;;;;;;;4969658;28;20023;-67
2022/01/13 14:15:19;;;;;;;1999.90;971.95;;;;;;;;;;4971944;28;20475;-65
2022/01/13 14:17:47;;;;;;;1999.90;999.90;;;;;;;;;;4970345;28;20049;-66
2022/01/13 14:20:18;;;;;;;1999.90;999.90;;;;;;;;;;4972233;28;20027;-65
2022/01/13 14:22:45;;;;;;;1999.90;938.72;;;;;;;;;;4972148;28;20026;-67
2022/01/13 14:25:13;;;;;;;1999.90;840.17;;;;;;;;;;4972059;28;20106;-66
2022/01/13 14:27:54;;;;;;;1999.90;927.60;;;;;;;;;;4971447;28;20101;-65
2022/01/13 14:30:30;;;;;;;1999.90;999.90;;;;;;;;;;4972107;28;20031;-65
2022/01/13 14:33:35;;;;;;;1999.90;999.90;;;;;;;;;;4972239;28;20023;-65